createdAt,value
2022-10-06T00:01:12.059Z,14.85
2022-10-06T00:09:17.346Z,12.43
2022-10-06T00:17:25.282Z,12.30
2022-10-06T00:25:31.089Z,10.00
2022-10-06T00:33:39.459Z,8.73
2022-10-06T00:41:44.907Z,10.13
2022-10-06T00:49:53.630Z,7.05
2022-10-06T00:57:59.490Z,6.78
2022-10-06T01:06:08.135Z,8.25
2022-10-06T01:14:13.959Z,9.18
2022-10-06T01:22:32.588Z,6.85
2022-10-06T01:30:42.980Z,8.48
2022-10-06T01:38:51.116Z,7.57
2022-10-06T01:46:56.756Z,8.40
2022-10-06T01:55:05.045Z,7.30
2022-10-06T02:03:11.107Z,8.50
2022-10-06T02:11:20.154Z,8.02
2022-10-06T02:19:27.577Z,8.07
2022-10-06T02:27:35.782Z,8.10
2022-10-06T02:35:43.029Z,7.68
2022-10-06T02:43:55.354Z,11.65
2022-10-06T02:52:01.535Z,10.85
2022-10-06T03:00:11.554Z,7.07
2022-10-06T03:08:16.973Z,8.00
2022-10-06T03:16:26.723Z,7.57
2022-10-06T03:24:32.234Z,8.15
2022-10-06T03:32:40.934Z,10.02
2022-10-06T03:40:48.173Z,6.78
2022-10-06T03:48:57.365Z,8.48
2022-10-06T03:57:04.499Z,8.00
2022-10-06T04:05:13.371Z,8.15
2022-10-06T04:13:19.979Z,5.90
2022-10-06T04:21:29.361Z,5.97
2022-10-06T04:29:35.320Z,7.28
2022-10-06T04:37:43.676Z,8.52
2022-10-06T04:45:49.598Z,7.60
2022-10-06T04:53:57.749Z,7.55
2022-10-06T05:02:07.125Z,7.68
2022-10-06T05:10:15.411Z,10.70
2022-10-06T05:18:21.472Z,10.75
2022-10-06T05:26:31.795Z,9.93
2022-10-06T05:34:38.674Z,8.88
2022-10-06T05:42:47.450Z,9.52
2022-10-06T05:51:00.244Z,8.15
2022-10-06T05:59:09.281Z,8.00
2022-10-06T06:07:15.300Z,5.18
2022-10-06T06:15:37.609Z,5.25
2022-10-06T06:23:45.161Z,6.15
2022-10-06T06:31:53.631Z,10.45
2022-10-06T06:39:59.162Z,10.77
2022-10-06T06:48:07.836Z,10.63
2022-10-06T06:56:13.388Z,11.05
2022-10-06T07:04:22.079Z,7.03
2022-10-06T07:12:28.096Z,8.20
2022-10-06T07:20:51.064Z,14.38
2022-10-06T07:29:00.149Z,5.80
2022-10-06T07:37:08.461Z,5.07
2022-10-06T07:45:26.581Z,4.88
2022-10-06T07:53:35.713Z,6.07
2022-10-06T08:01:47.597Z,7.50
2022-10-06T08:09:55.514Z,6.82
2022-10-06T08:18:08.742Z,4.60
2022-10-06T08:26:25.156Z,8.25
2022-10-06T08:34:30.501Z,6.03
2022-10-06T08:42:43.753Z,6.65
2022-10-06T08:50:57.484Z,6.93
2022-10-06T08:59:06.956Z,4.45
2022-10-06T09:07:16.891Z,7.05
2022-10-06T09:15:33.944Z,7.38
2022-10-06T09:23:52.274Z,6.10
2022-10-06T09:32:03.073Z,6.82
2022-10-06T09:40:39.749Z,4.40
2022-10-06T09:48:47.671Z,5.60
2022-10-06T09:56:54.237Z,4.20
2022-10-06T10:05:02.588Z,4.88
2022-10-06T10:13:21.746Z,4.90
2022-10-06T10:21:33.949Z,3.72
2022-10-06T10:30:02.126Z,2.88
2022-10-06T10:46:27.398Z,9.57
2022-10-06T10:54:42.262Z,4.28
2022-10-06T11:02:47.579Z,2.90
2022-10-06T11:11:00.510Z,4.10
2022-10-06T11:19:18.427Z,3.45
2022-10-06T11:27:37.944Z,4.22
2022-10-06T11:35:47.356Z,5.15
2022-10-06T11:44:00.774Z,5.57
2022-10-06T11:52:35.760Z,3.42
2022-10-06T12:00:55.405Z,4.00
2022-10-06T12:09:01.216Z,5.57
2022-10-06T12:17:19.815Z,4.47
2022-10-06T12:25:31.109Z,5.25
2022-10-06T12:33:43.879Z,5.68
2022-10-06T12:42:01.651Z,3.67
2022-10-06T12:50:18.583Z,3.67
2022-10-06T12:58:32.591Z,2.85
2022-10-06T13:06:40.730Z,4.00
2022-10-06T13:14:46.082Z,4.60
2022-10-06T13:23:02.833Z,4.20
2022-10-06T13:31:20.161Z,7.65
2022-10-06T13:39:31.936Z,2.90
2022-10-06T13:47:38.046Z,3.97
2022-10-06T13:55:52.540Z,2.60
2022-10-06T14:04:16.415Z,2.22
2022-10-06T14:12:24.426Z,19.20
2022-10-06T14:20:46.087Z,6.68
2022-10-06T14:28:55.674Z,3.42
2022-10-06T14:37:00.987Z,4.28
2022-10-06T14:45:10.072Z,3.60
2022-10-06T14:53:17.616Z,7.15
2022-10-06T15:01:28.457Z,5.40
2022-10-06T15:09:33.831Z,9.48
2022-10-06T15:17:42.468Z,6.63
2022-10-06T15:26:07.530Z,8.43
2022-10-06T15:34:16.871Z,8.60
2022-10-06T15:42:24.371Z,10.07
2022-10-06T15:50:32.238Z,10.02
2022-10-06T15:58:37.591Z,9.80
2022-10-06T16:06:55.510Z,12.68
2022-10-06T16:15:00.868Z,12.48
2022-10-06T16:23:08.684Z,18.10
2022-10-06T16:31:14.049Z,24.00
2022-10-06T16:39:23.406Z,21.48
2022-10-06T16:47:28.790Z,22.88
2022-10-06T16:55:36.676Z,26.25
2022-10-06T17:03:43.011Z,29.33
2022-10-06T17:11:52.365Z,30.15
2022-10-06T17:19:57.634Z,33.88
2022-10-06T17:28:05.552Z,32.97
2022-10-06T17:36:13.660Z,33.83
2022-10-06T17:44:26.172Z,31.13
2022-10-06T17:52:31.836Z,41.67
2022-10-06T18:00:39.752Z,36.08
2022-10-06T18:08:46.378Z,28.90
2022-10-06T18:16:57.892Z,30.92
2022-10-06T18:25:03.383Z,31.80
2022-10-06T18:41:38.054Z,30.67
2022-10-06T18:49:46.589Z,36.28
2022-10-06T18:57:51.879Z,36.47
2022-10-06T19:06:00.303Z,43.08
2022-10-06T19:14:06.457Z,39.22
2022-10-06T19:22:16.307Z,46.70
2022-10-06T19:30:22.354Z,40.80
2022-10-06T19:38:31.223Z,38.72
2022-10-06T19:46:37.611Z,32.83
2022-10-06T19:54:47.051Z,35.05
2022-10-06T20:02:52.619Z,47.15
2022-10-06T20:11:07.679Z,37.17
2022-10-06T20:19:14.335Z,43.47
2022-10-06T20:27:22.284Z,45.25
2022-10-06T20:35:27.620Z,38.53
2022-10-06T20:43:35.997Z,36.78
2022-10-06T20:51:46.690Z,38.47
2022-10-06T20:59:54.603Z,38.83
2022-10-06T21:08:00.229Z,25.98
2022-10-06T21:16:09.114Z,25.77
2022-10-06T21:24:14.599Z,24.52
2022-10-06T21:32:22.521Z,25.25
2022-10-06T21:40:27.828Z,20.05
2022-10-06T21:48:35.722Z,16.55
2022-10-06T21:56:41.918Z,17.92
2022-10-06T22:04:49.831Z,16.08
2022-10-06T22:12:55.186Z,14.00
2022-10-06T22:21:03.461Z,17.90
2022-10-06T22:29:10.544Z,15.45
2022-10-06T22:37:18.412Z,12.80
2022-10-06T22:45:23.709Z,12.38
2022-10-06T22:53:32.432Z,15.77
2022-10-06T23:01:39.334Z,17.10
2022-10-06T23:09:47.202Z,21.08
2022-10-06T23:17:52.608Z,21.58
2022-10-06T23:26:05.071Z,21.55
2022-10-06T23:34:10.526Z,23.17
2022-10-06T23:42:18.438Z,18.88
2022-10-06T23:50:23.837Z,19.20
2022-10-06T23:58:32.214Z,17.55
